LIPL/QBS METAR and TAF weather

Enter ICAO airport designator
Station Type Date Time Source
LIPL METAR 2019/07/20 04:55 UTC NOAA

LIPL 200455Z 13001KT CAVOK 23/21 Q1016 RMK SKC VIS MIN 9999 WIND THR31 08003KT WIND THR13 08001KT BLU


Station Type Date Time Source
LIPL Decoded METAR 2019/07/20 04:55 UTC NOAA

Brescia / Ghedi, Italy (LIPL) 45-25N 010-17E 97M
Jul 20, 2019 - 12:55 AM EDT / 2019.07.20 0455 UTC
Wind: from the SE (130 degrees) at 1 MPH (1 KT):0
Visibility: greater than 7 mile(s):0
Temperature: 73 F (23 C)
Dew Point: 69 F (21 C)
Relative Humidity: 88%
Pressure (altimeter): 30.00 in. Hg (1016 hPa)
ob: LIPL 200455Z 13001KT CAVOK 23/21 Q1016 RMK SKC VIS MIN 9999 WIND THR31 08003KT WIND THR13 08001KT BLU
cycle: 5

Station Type Date Time Source
LIPL TAF 2019/07/15 15:33 UTC NOAA

TAF TAF LIPL 151400Z 1515/1603 VRB03KT 9999 SCT040

Example: see airport list